| time (UTC) | temp F | wind direction | speed knots | gust knots | rain 1hr in | rain 24hr in | rain mn in | humidity % | barometer mb |
| 20260905235005 | 80 | 229 | 0.9 | 3.5 | 0.00 | 0.29 | 0.24 | 91 | 1012.5 |
| 20260905234006 | 80 | 258 | 0.9 | 3.5 | 0.00 | 0.29 | 0.24 | 91 | 1012.5 |
| 20260905233008 | 80 | 344 | 0.0 | 1.7 | 0.00 | 0.29 | 0.24 | 90 | 1012.4 |
| 20260905232434 | 80 | 346 | 0.0 | 0.9 | 0.00 | 0.29 | 0.24 | 89 | 1012.3 |
| 20260905231438 | 80 | 346 | 0.0 | 1.7 | 0.00 | 0.29 | 0.24 | 90 | 1012.0 |
| 20260905225955 | 81 | 346 | 0.9 | 2.6 | 0.00 | 0.29 | 0.24 | 89 | 1012.2 |
| 20260905224956 | 80 | 346 | 1.7 | 3.5 | 0.01 | 0.29 | 0.24 | 90 | 1012.3 |
| 20260905223956 | 80 | 344 | 0.9 | 4.3 | 0.02 | 0.29 | 0.24 | 91 | 1012.8 |
| 20260905222951 | 80 | 354 | 0.9 | 3.5 | 0.09 | 0.29 | 0.24 | 91 | 1012.8 |
| 20260905221952 | 79 | 356 | 0.9 | 3.5 | 0.18 | 0.29 | 0.24 | 90 | 1012.6 |
| 20260905221437 | 79 | 350 | 2.6 | 5.2 | 0.23 | 0.29 | 0.24 | 90 | 1012.8 |
| 20260905215951 | 78 | 15 | 1.7 | 3.5 | 0.23 | 0.29 | 0.24 | 89 | 1012.6 |
| 20260905214951 | 78 | 19 | 2.6 | 7.0 | 0.22 | 0.28 | 0.23 | 88 | 1012.6 |
| 20260905213949 | 78 | 355 | 5.2 | 13.0 | 0.21 | 0.27 | 0.23 | 87 | 1012.6 |
| 20260905213509 | 81 | 271 | 9.6 | 24.3 | 0.05 | 0.11 | 0.06 | 75 | 1012.8 |
| 20260905213433 | 78 | 10 | 5.2 | 13.0 | 0.14 | 0.20 | 0.16 | 85 | 1013.0 |
| 20260905211430 | 88 | 229 | 4.3 | 10.4 | 0.00 | 0.07 | 0.01 | 66 | 1012.5 |
| 20260905205948 | 90 | 235 | 2.6 | 7.8 | 0.00 | 0.17 | 0.01 | 65 | 1012.1 |
| 20260905204950 | 92 | 283 | 2.6 | 6.1 | 0.00 | 0.18 | 0.01 | 63 | 1011.9 |
| 20260905203950 | 94 | 302 | 2.6 | 7.0 | 0.00 | 0.18 | 0.01 | 60 | 1011.7 |
| 20260905202948 | 95 | 269 | 3.5 | 8.7 | 0.00 | 0.18 | 0.01 | 62 | 1011.9 |
| 20260905201947 | 92 | 262 | 4.3 | 8.7 | 0.00 | 0.18 | 0.01 | 65 | 1011.7 |
| 20260905201907 | 94 | 246 | 3.5 | 11.3 | 0.00 | 0.18 | 0.01 | 61 | 1011.9 |
| 20260905195946 | 94 | 306 | 2.6 | 8.7 | 0.00 | 0.18 | 0.01 | 61 | 1012.0 |
| 20260905194947 | 96 | 328 | 4.3 | 9.6 | 0.00 | 0.18 | 0.01 | 62 | 1012.0 |
| 20260905193946 | 96 | 15 | 4.3 | 9.6 | 0.00 | 0.18 | 0.01 | 61 | 1012.0 |
| 20260905192946 | 94 | 349 | 4.3 | 8.7 | 0.00 | 0.18 | 0.01 | 66 | 1012.3 |
| 20260905191939 | 91 | 299 | 3.5 | 9.6 | 0.00 | 0.18 | 0.01 | 68 | 1012.3 |
| 20260905190937 | 92 | 300 | 3.5 | 9.6 | 0.00 | 0.18 | 0.01 | 64 | 1012.5 |
| 20260905185938 | 95 | 223 | 2.6 | 11.3 | 0.00 | 0.18 | 0.01 | 60 | 1012.5 |
| 20260905184939 | 95 | 264 | 3.5 | 8.7 | 0.00 | 0.18 | 0.01 | 56 | 1012.4 |
| 20260905183929 | 95 | 237 | 4.3 | 11.3 | 0.00 | 0.18 | 0.01 | 57 | 1012.4 |
| 20260905183409 | 95 | 242 | 4.3 | 9.6 | 0.00 | 0.18 | 0.01 | 57 | 1012.4 |
| 20260905182405 | 95 | 230 | 4.3 | 9.6 | 0.00 | 0.18 | 0.01 | 60 | 1012.6 |
| 20260905180931 | 94 | 244 | 2.6 | 7.0 | 0.00 | 0.18 | 0.01 | 64 | 1012.7 |
| 20260905175929 | 95 | 244 | 3.5 | 7.8 | 0.00 | 0.18 | 0.01 | 61 | 1012.9 |
| 20260905174929 | 95 | 293 | 2.6 | 6.1 | 0.00 | 0.18 | 0.01 | 61 | 1013.1 |
| 20260905174410 | 93 | 250 | 3.5 | 7.8 | 0.00 | 0.18 | 0.01 | 66 | 1013.2 |
| 20260905172930 | 92 | 212 | 2.6 | 5.2 | 0.00 | 0.18 | 0.01 | 63 | 1013.4 |
| 20260905171930 | 91 | 278 | 2.6 | 6.1 | 0.00 | 0.18 | 0.01 | 65 | 1013.6 |
| 20260905170926 | 94 | 294 | 3.5 | 7.8 | 0.00 | 0.18 | 0.01 | 64 | 1013.7 |
| 20260905170844 | 92 | 287 | 4.3 | 8.7 | 0.00 | 0.18 | 0.01 | 64 | 1013.8 |
| 20260905165422 | 93 | 216 | 3.5 | 7.8 | 0.00 | 0.18 | 0.01 | 66 | 1014.0 |
| 20260905164413 | 92 | 286 | 3.5 | 8.7 | 0.00 | 0.18 | 0.01 | 66 | 1014.2 |
| 20260905162924 | 91 | 273 | 3.5 | 6.1 | 0.00 | 0.18 | 0.01 | 68 | 1014.3 |
| 20260905161924 | 92 | 253 | 3.5 | 9.6 | 0.00 | 0.18 | 0.01 | 65 | 1014.4 |
| 20260905160925 | 92 | 245 | 3.5 | 7.8 | 0.00 | 0.18 | 0.01 | 65 | 1014.5 |
| 20260905155922 | 91 | 275 | 3.5 | 9.6 | 0.00 | 0.18 | 0.01 | 67 | 1014.6 |
| 20260905154922 | 91 | 232 | 2.6 | 8.7 | 0.00 | 0.18 | 0.01 | 71 | 1014.7 |
| 20260905153924 | 90 | 279 | 3.5 | 7.0 | 0.00 | 0.18 | 0.01 | 70 | 1014.7 |
| 20260905152922 | 91 | 248 | 2.6 | 7.0 | 0.00 | 0.18 | 0.01 | 69 | 1014.8 |
| 20260905151922 | 90 | 232 | 2.6 | 7.8 | 0.00 | 0.18 | 0.01 | 70 | 1014.9 |
| 20260905150925 | 89 | 237 | 2.6 | 9.6 | 0.00 | 0.18 | 0.01 | 72 | 1014.8 |
| 20260905145912 | 89 | 217 | 2.6 | 7.0 | 0.00 | 0.18 | 0.01 | 76 | 1014.9 |
| 20260905144914 | 88 | 237 | 2.6 | 6.1 | 0.00 | 0.18 | 0.01 | 77 | 1014.9 |
| 20260905143912 | 87 | 273 | 1.7 | 6.1 | 0.00 | 0.18 | 0.01 | 79 | 1014.7 |
| 20260905142909 | 87 | 268 | 2.6 | 5.2 | 0.00 | 0.18 | 0.01 | 80 | 1014.8 |
| 20260905142356 | 86 | 206 | 2.6 | 6.1 | 0.00 | 0.18 | 0.01 | 81 | 1014.7 |
| 20260905140909 | 86 | 260 | 1.7 | 4.3 | 0.00 | 0.18 | 0.01 | 82 | 1014.9 |
| 20260905135911 | 85 | 236 | 0.9 | 4.3 | 0.00 | 0.18 | 0.01 | 86 | 1014.9 |
| 20260905134910 | 84 | 237 | 0.9 | 4.3 | 0.00 | 0.18 | 0.01 | 86 | 1014.9 |
| 20260905133911 | 84 | 240 | 0.9 | 3.5 | 0.00 | 0.18 | 0.01 | 88 | 1014.8 |
| 20260905132909 | 83 | 244 | 1.7 | 3.5 | 0.00 | 0.18 | 0.01 | 90 | 1014.8 |
| 20260905132838 | 82 | 256 | 0.9 | 3.5 | 0.00 | 0.18 | 0.01 | 93 | 1014.8 |
| 20260905130859 | 81 | 266 | 0.9 | 2.6 | 0.00 | 0.18 | 0.01 | 94 | 1014.8 |
| 20260905125857 | 81 | 328 | 0.0 | 1.7 | 0.00 | 0.18 | 0.01 | 94 | 1014.9 |
| 20260905124858 | 80 | 329 | 0.0 | 1.7 | 0.00 | 0.18 | 0.01 | 95 | 1014.8 |
| 20260905123857 | 80 | 329 | 0.0 | 0.9 | 0.00 | 0.18 | 0.01 | 95 | 1014.8 |
| 20260905123338 | 79 | 328 | 0.0 | 0.9 | 0.00 | 0.18 | 0.01 | 95 | 1014.6 |
| 20260905121857 | 78 | 329 | 0.0 | 0.0 | 0.00 | 0.18 | 0.01 | 95 | 1014.6 |
| 20260905121339 | 77 | 329 | 0.0 | 0.0 | 0.00 | 0.18 | 0.01 | 95 | 1014.5 |
| 20260905115856 | 77 | 328 | 0.0 | 0.0 | 0.00 | 0.18 | 0.01 | 95 | 1014.4 |
| 20260905115338 | 76 | 329 | 0.0 | 0.0 | 0.00 | 0.18 | 0.01 | 95 | 1014.5 |
| 20260905113853 | 76 | 329 | 0.0 | 0.0 | 0.00 | 0.18 | 0.01 | 95 | 1014.3 |
| 20260905112853 | 75 | 329 | 0.0 | 0.0 | 0.00 | 0.18 | 0.01 | 95 | 1014.3 |
| 20260905112802 | 76 | 329 | 0.0 | 0.9 | 0.00 | 0.18 | 0.01 | 95 | 1014.2 |
| 20260905110851 | 75 | 328 | 0.0 | 0.9 | 0.00 | 0.18 | 0.01 | 95 | 1014.2 |
| 20260905105849 | 75 | 329 | 0.0 | 0.0 | 0.00 | 0.18 | 0.01 | 95 | 1014.1 |
| 20260905105338 | 75 | 329 | 0.0 | 0.0 | 0.00 | 0.18 | 0.01 | 95 | 1013.9 |
| 20260905103845 | 75 | 329 | 0.0 | 0.0 | 0.00 | 0.18 | 0.01 | 95 | 1014.0 |
| 20260905102844 | 75 | 328 | 0.0 | 0.0 | 0.00 | 0.18 | 0.01 | 95 | 1013.8 |
| 20260905101844 | 75 | 329 | 0.0 | 0.0 | 0.00 | 0.18 | 0.01 | 95 | 1013.8 |
| 20260905100846 | 75 | 329 | 0.0 | 0.0 | 0.00 | 0.18 | 0.01 | 95 | 1013.8 |
| 20260905095831 | 75 | 328 | 0.0 | 0.0 | 0.00 | 0.18 | 0.01 | 95 | 1013.8 |
| 20260905094829 | 75 | 329 | 0.0 | 0.0 | 0.00 | 0.18 | 0.01 | 95 | 1013.8 |
| 20260905094752 | 75 | 328 | 0.0 | 0.0 | 0.00 | 0.18 | 0.01 | 95 | 1013.8 |
| 20260905092829 | 75 | 329 | 0.0 | 0.0 | 0.00 | 0.18 | 0.01 | 95 | 1013.7 |
| 20260905092308 | 75 | 328 | 0.0 | 0.0 | 0.01 | 0.18 | 0.01 | 95 | 1013.8 |
| 20260905090828 | 75 | 329 | 0.0 | 0.0 | 0.01 | 0.18 | 0.01 | 95 | 1013.7 |
| 20260905085828 | 76 | 329 | 0.0 | 0.0 | 0.01 | 0.18 | 0.01 | 95 | 1013.8 |
| 20260905084827 | 76 | 328 | 0.0 | 0.0 | 0.01 | 0.18 | 0.01 | 95 | 1013.7 |
| 20260905083829 | 76 | 329 | 0.0 | 0.0 | 0.01 | 0.18 | 0.01 | 95 | 1013.8 |
| 20260905082828 | 76 | 328 | 0.0 | 0.0 | 0.01 | 0.18 | 0.01 | 95 | 1013.8 |
| 20260905081827 | 76 | 329 | 0.0 | 0.9 | 0.00 | 0.17 | 0.00 | 95 | 1013.7 |
| 20260905080828 | 76 | 328 | 0.0 | 0.0 | 0.00 | 0.17 | 0.00 | 95 | 1013.7 |
| 20260905075828 | 76 | 329 | 0.0 | 0.0 | 0.00 | 0.17 | 0.00 | 95 | 1013.7 |
| 20260905074828 | 76 | 329 | 0.0 | 0.0 | 0.00 | 0.17 | 0.00 | 94 | 1013.6 |
| 20260905074309 | 76 | 329 | 0.0 | 0.0 | 0.00 | 0.17 | 0.00 | 94 | 1013.6 |
| 20260905072826 | 76 | 329 | 0.0 | 0.0 | 0.00 | 0.17 | 0.00 | 94 | 1013.6 |
| 20260905071827 | 76 | 329 | 0.0 | 0.0 | 0.00 | 0.17 | 0.00 | 94 | 1013.8 |
| 20260905071747 | 76 | 329 | 0.0 | 0.0 | 0.00 | 0.17 | 0.00 | 95 | 1013.8 |
| 20260905065824 | 76 | 328 | 0.0 | 0.0 | 0.00 | 0.17 | 0.00 | 94 | 1014.0 |
| 20260905064824 | 77 | 329 | 0.0 | 0.0 | 0.00 | 0.17 | 0.00 | 95 | 1014.0 |
| 20260905063813 | 76 | 329 | 0.0 | 0.0 | 0.00 | 0.17 | 0.00 | 95 | 1014.0 |
| 20260905062811 | 77 | 328 | 0.0 | 0.0 | 0.00 | 0.17 | 0.00 | 95 | 1014.0 |
| 20260905061810 | 77 | 329 | 0.0 | 0.0 | 0.00 | 0.17 | 0.00 | 94 | 1014.1 |
| 20260905061246 | 77 | 328 | 0.0 | 0.0 | 0.00 | 0.17 | 0.00 | 94 | 1014.2 |
| 20260905055805 | 77 | 329 | 0.0 | 0.0 | 0.00 | 0.17 | 0.00 | 94 | 1014.3 |
| 20260905054804 | 77 | 328 | 0.0 | 0.0 | 0.00 | 0.17 | 0.00 | 94 | 1014.4 |
| 20260905053803 | 77 | 329 | 0.0 | 0.0 | 0.00 | 0.17 | 0.00 | 94 | 1014.4 |
| 20260905052802 | 77 | 328 | 0.0 | 0.0 | 0.00 | 0.17 | 0.00 | 94 | 1014.6 |
| 20260905052245 | 77 | 329 | 0.0 | 0.9 | 0.00 | 0.17 | 0.00 | 94 | 1014.6 |
| 20260905050801 | 78 | 329 | 0.0 | 0.0 | 0.00 | 0.17 | 0.00 | 94 | 1014.8 |
| 20260905045801 | 78 | 329 | 0.0 | 0.0 | 0.00 | 0.17 | 0.00 | 94 | 1014.9 |
| 20260905044804 | 78 | 329 | 0.0 | 0.0 | 0.00 | 0.17 | 0.00 | 94 | 1015.0 |
| 20260905043801 | 78 | 328 | 0.0 | 1.7 | 0.00 | 0.17 | 0.00 | 94 | 1015.1 |
| 20260905043240 | 78 | 329 | 0.0 | 0.9 | 0.00 | 0.17 | 0.00 | 94 | 1015.1 |
| 20260905041759 | 78 | 329 | 0.0 | 0.9 | 0.00 | 0.17 | 0.00 | 94 | 1015.1 |
| 20260905040757 | 78 | 329 | 0.0 | 0.0 | 0.00 | 0.17 | 0.00 | 94 | 1015.1 |
| 20260905035752 | 78 | 329 | 0.0 | 0.0 | 0.00 | 0.17 | 0.17 | 94 | 1015.2 |
| 20260905034739 | 78 | 329 | 0.0 | 0.0 | 0.00 | 0.17 | 0.17 | 94 | 1015.1 |
| 20260905034222 | 78 | 328 | 0.0 | 0.0 | 0.00 | 0.17 | 0.17 | 94 | 1015.2 |
| 20260905032738 | 78 | 329 | 0.0 | 0.0 | 0.00 | 0.17 | 0.17 | 94 | 1015.4 |
| 20260905031740 | 78 | 329 | 0.0 | 0.0 | 0.00 | 0.17 | 0.17 | 94 | 1015.5 |
| 20260905031216 | 78 | 329 | 0.0 | 0.0 | 0.01 | 0.17 | 0.17 | 94 | 1015.5 |
| 20260905025741 | 78 | 329 | 0.9 | 3.5 | 0.01 | 0.17 | 0.17 | 94 | 1015.7 |
| 20260905024740 | 78 | 328 | 0.0 | 2.6 | 0.01 | 0.18 | 0.17 | 93 | 1015.6 |
| 20260905023740 | 78 | 328 | 0.0 | 1.7 | 0.01 | 0.18 | 0.17 | 93 | 1015.5 |
| 20260905022733 | 78 | 329 | 0.0 | 0.0 | 0.02 | 0.18 | 0.17 | 93 | 1015.3 |
| 20260905022226 | 78 | 329 | 0.9 | 2.6 | 0.02 | 0.18 | 0.17 | 93 | 1015.3 |
| 20260905020732 | 78 | 256 | 0.9 | 3.5 | 0.02 | 0.17 | 0.17 | 93 | 1015.3 |
| 20260905020700 | 78 | 242 | 0.0 | 0.9 | 0.02 | 0.17 | 0.16 | 93 | 1015.2 |
| 20260905015204 | 78 | 242 | 0.0 | 1.7 | 0.02 | 0.17 | 0.16 | 93 | 1015.1 |
| 20260905013725 | 78 | 242 | 0.0 | 2.6 | 0.02 | 0.17 | 0.16 | 93 | 1015.0 |
| 20260905012723 | 78 | 242 | 0.9 | 2.6 | 0.01 | 0.16 | 0.15 | 92 | 1015.0 |
| 20260905011715 | 78 | 242 | 0.9 | 3.5 | 0.01 | 0.16 | 0.15 | 92 | 1015.0 |
| 20260905010716 | 78 | 243 | 0.9 | 3.5 | 0.02 | 0.15 | 0.14 | 92 | 1015.3 |
| 20260905005714 | 78 | 244 | 1.7 | 4.3 | 0.02 | 0.15 | 0.14 | 91 | 1015.0 |
| 20260905004657 | 79 | 270 | 2.6 | 7.8 | 0.02 | 0.15 | 0.14 | 91 | 1015.0 |
| 20260905003656 | 80 | 224 | 3.5 | 8.7 | 0.02 | 0.15 | 0.14 | 92 | 1015.2 |
| 20260905002657 | 80 | 306 | 1.7 | 6.1 | 0.02 | 0.15 | 0.14 | 92 | 1015.3 |
| 20260905001658 | 80 | 160 | 1.7 | 7.0 | 0.02 | 0.16 | 0.14 | 92 | 1015.1 |
| 20260905000642 | 81 | 213 | 0.0 | 2.6 | 0.00 | 0.14 | 0.12 | 92 | 1015.0 |
| 20260904235642 | 81 | 213 | 0.0 | 1.7 | 0.00 | 0.15 | 0.12 | 91 | 1015.0 |
| 20260904235121 | 81 | 213 | 0.9 | 2.6 | 0.00 | 0.16 | 0.12 | 91 | 1014.8 |